This is the latest recevied weather packets stored in our database for station/object 9A7DI-13. If no packets are shown the sender has not sent any weather packets the latest 10 day(s).
| Time | Temp. | Humidity | Pressure | Rain* | Wind** | Luminosity | Snow |
|---|---|---|---|---|---|---|---|
| 1777013248 | 16.67° C | 38% | 1026.9 hPa | - | - | - | - |
| 1777012648 | 16.11° C | 38% | 1026.8 hPa | - | - | - | - |
| 1777012048 | 16.11° C | 38% | 1026.8 hPa | - | - | - | - |
| 1777011448 | 15.56° C | 37% | 1026.7 hPa | - | - | - | - |
| 1777010848 | 15.56° C | 38% | 1026.6 hPa | - | - | - | - |
| 1777010248 | 15° C | 38% | 1026.6 hPa | - | - | - | - |
| 1777009648 | 14.44° C | 39% | 1026.7 hPa | - | - | - | - |
| 1777009048 | 13.89° C | 39% | 1026.7 hPa | - | - | - | - |
| 1777008448 | 13.89° C | 39% | 1026.7 hPa | - | - | - | - |
| 1777007848 | 13.33° C | 40% | 1026.7 hPa | - | - | - | - |
| 1777007248 | 12.78° C | 42% | 1026.6 hPa | - | - | - | - |
| 1777006648 | 11.67° C | 45% | 1026.5 hPa | - | - | - | - |
| 1777006048 | 11.11° C | 46% | 1026.5 hPa | - | - | - | - |
| 1777004848 | 8.89° C | 52% | 1026.5 hPa | - | - | - | - |
| 1777004248 | 7.78° C | 53% | 1026.5 hPa | - | - | - | - |
| 1777003648 | 7.78° C | 53% | 1026.3 hPa | - | - | - | - |
| 1777003048 | 7.78° C | 53% | 1026.3 hPa | - | - | - | - |
| 1777002448 | 8.33° C | 52% | 1026.2 hPa | - | - | - | - |
| 1777001848 | 8.89° C | 50% | 1026.1 hPa | - | - | - | - |
| 1777001248 | 8.33° C | 50% | 1026 hPa | - | - | - | - |
| 1777000648 | 7.78° C | 53% | 1026 hPa | - | - | - | - |
| 1777000048 | 7.78° C | 53% | 1026 hPa | - | - | - | - |
* Rain since midnight (hover to see other rain measurements)
** Current wind speed in m/s (hover to see current wind gust speed)